Time;durP1;ratioP1;P1;durP2;ratioP2;P2;SDS_P1;SDS_P2;PMS_P1;PMS_P2;Temp;Humidity;BMP_temperature;BMP_pressure;BME280_temperature;BME280_humidity;BME280_pressure;Samples;Min_cycle;Max_cycle;Signal;HPM_P1;HPM_P2
2022/01/30 00:01:53;;;;;;;32.63;21.17;;;;;;;;;;5066076;28;20386;-79
2022/01/30 00:04:20;;;;;;;31.95;19.33;;;;;;;;;;5085167;28;20033;-81
2022/01/30 00:06:46;;;;;;;31.20;20.98;;;;;;;;;;5085332;28;20024;-81
2022/01/30 00:12:01;;;;;;;30.15;18.35;;;;;;;;;;5084121;28;20085;-80
2022/01/30 00:14:31;;;;;;;17.17;12.70;;;;;;;;;;5081206;28;20024;-79
2022/01/30 00:19:52;;;;;;;40.22;20.23;;;;;;;;;;5089001;28;20043;-77
2022/01/30 00:22:27;;;;;;;37.97;19.92;;;;;;;;;;5083055;28;20459;-81
2022/01/30 00:24:57;;;;;;;29.88;20.63;;;;;;;;;;5064693;28;20040;-81
2022/01/30 00:27:33;;;;;;;24.38;15.05;;;;;;;;;;5070890;28;20067;-81
2022/01/30 00:30:00;;;;;;;26.33;18.90;;;;;;;;;;5065624;28;20028;-78
2022/01/30 00:32:26;;;;;;;27.88;18.90;;;;;;;;;;5081418;28;20024;-80
2022/01/30 00:34:52;;;;;;;28.23;18.13;;;;;;;;;;5083759;28;20372;-79
2022/01/30 00:37:18;;;;;;;23.95;17.35;;;;;;;;;;5081671;28;20521;-82
2022/01/30 00:39:44;;;;;;;23.75;16.52;;;;;;;;;;5091957;28;20039;-83
2022/01/30 00:42:10;;;;;;;32.95;23.38;;;;;;;;;;5093004;28;20142;-78
2022/01/30 00:44:38;;;;;;;67.80;34.25;;;;;;;;;;5094567;28;20481;-82
2022/01/30 00:47:05;;;;;;;48.88;28.63;;;;;;;;;;5094687;28;20036;-79
2022/01/30 00:49:31;;;;;;;37.90;24.48;;;;;;;;;;5102565;28;20537;-83
2022/01/30 00:51:57;;;;;;;32.83;20.88;;;;;;;;;;5114705;28;20538;-80
2022/01/30 00:54:23;;;;;;;27.63;18.45;;;;;;;;;;5114108;28;20036;-80
2022/01/30 00:56:49;;;;;;;42.97;25.88;;;;;;;;;;5114374;28;20039;-77
2022/01/30 00:59:15;;;;;;;31.75;21.63;;;;;;;;;;5114130;28;20116;-77
2022/01/30 01:01:41;;;;;;;30.60;20.33;;;;;;;;;;5114385;28;20032;-79
2022/01/30 01:04:07;;;;;;;25.48;17.85;;;;;;;;;;5114343;28;20080;-79
2022/01/30 01:06:36;;;;;;;48.67;30.70;;;;;;;;;;5113881;28;20061;-80
2022/01/30 01:09:05;;;;;;;46.38;25.13;;;;;;;;;;5103325;28;20032;-79
2022/01/30 01:24:56;;;;;;;19.63;14.55;;;;;;;;;;5099934;28;20116;-78
2022/01/30 01:27:22;;;;;;;50.00;29.83;;;;;;;;;;5103869;28;20019;-83
2022/01/30 01:29:48;;;;;;;40.58;25.13;;;;;;;;;;5103135;28;20028;-80
2022/01/30 01:32:14;;;;;;;23.65;14.82;;;;;;;;;;5103212;28;20101;-81
2022/01/30 01:34:41;;;;;;;21.45;16.10;;;;;;;;;;5099653;28;20051;-80
2022/01/30 01:37:10;;;;;;;54.05;29.88;;;;;;;;;;5075149;28;20561;-78
2022/01/30 01:39:36;;;;;;;43.47;25.23;;;;;;;;;;5074646;28;20036;-77
2022/01/30 01:42:03;;;;;;;55.25;29.33;;;;;;;;;;5075149;28;20024;-78
2022/01/30 01:44:38;;;;;;;51.38;31.88;;;;;;;;;;5092945;28;20088;-77
2022/01/30 01:47:05;;;;;;;60.22;35.15;;;;;;;;;;5093247;28;20069;-78
2022/01/30 01:49:33;;;;;;;36.47;23.20;;;;;;;;;;5086186;28;20074;-78
2022/01/30 01:52:23;;;;;;;38.17;24.45;;;;;;;;;;5072942;28;20025;-80
2022/01/30 01:54:49;;;;;;;33.22;20.63;;;;;;;;;;5071591;28;20131;-79
2022/01/30 01:57:16;;;;;;;37.85;24.02;;;;;;;;;;5072402;28;20036;-79
2022/01/30 01:59:42;;;;;;;36.58;22.85;;;;;;;;;;5072855;28;20025;-80
2022/01/30 02:02:08;;;;;;;35.90;22.33;;;;;;;;;;5072407;28;20153;-79
2022/01/30 02:04:36;;;;;;;44.15;27.48;;;;;;;;;;5072522;28;20030;-80
2022/01/30 02:07:44;;;;;;;72.97;36.25;;;;;;;;;;5072358;28;20036;-81
2022/01/30 02:10:04;;;;;;;58.80;30.73;;;;;;;;;;5072508;28;20032;-78
2022/01/30 02:12:43;;;;;;;51.90;25.88;;;;;;;;;;5072336;28;20024;-80
2022/01/30 02:15:31;;;;;;;28.13;17.08;;;;;;;;;;5072492;28;20112;-79
2022/01/30 02:24:12;;;;;;;33.42;19.45;;;;;;;;;;5040813;28;19910;-79
2022/01/30 02:26:27;;;;;;;31.20;19.23;;;;;;;;;;5068792;28;20541;-79
2022/01/30 02:28:55;;;;;;;48.17;30.13;;;;;;;;;;5072320;28;20025;-78
2022/01/30 02:31:22;;;;;;;52.28;35.90;;;;;;;;;;5071937;28;20034;-80
2022/01/30 02:33:48;;;;;;;46.72;29.77;;;;;;;;;;5072139;28;20040;-80
2022/01/30 02:36:14;;;;;;;45.25;28.10;;;;;;;;;;5072072;28;20032;-79
2022/01/30 02:38:40;;;;;;;39.53;24.35;;;;;;;;;;5085161;28;20028;-78
2022/01/30 02:41:09;;;;;;;33.25;21.48;;;;;;;;;;5069740;28;20400;-79
2022/01/30 02:43:42;;;;;;;35.10;23.17;;;;;;;;;;5071549;28;20020;-80
2022/01/30 02:46:33;;;;;;;36.60;23.55;;;;;;;;;;5072143;28;20036;-79
2022/01/30 02:48:58;;;;;;;36.63;21.58;;;;;;;;;;5071158;28;20043;-78
2022/01/30 02:51:33;;;;;;;29.08;19.50;;;;;;;;;;5072005;28;20434;-79
2022/01/30 02:54:03;;;;;;;42.05;23.80;;;;;;;;;;5071742;28;20467;-79
2022/01/30 02:56:34;;;;;;;34.97;20.73;;;;;;;;;;5072081;28;20036;-79
2022/01/30 02:59:00;;;;;;;38.90;24.25;;;;;;;;;;5053685;28;20033;-79
2022/01/30 03:01:26;;;;;;;41.80;23.02;;;;;;;;;;5071922;28;20503;-79
2022/01/30 03:03:52;;;;;;;39.67;23.08;;;;;;;;;;5053924;28;20082;-80
2022/01/30 03:06:18;;;;;;;36.88;22.58;;;;;;;;;;5074778;28;20037;-79
2022/01/30 03:08:45;;;;;;;42.85;25.60;;;;;;;;;;5075666;28;20036;-81
2022/01/30 03:11:11;;;;;;;54.08;32.75;;;;;;;;;;5075884;28;20028;-79
2022/01/30 03:13:37;;;;;;;46.42;29.08;;;;;;;;;;5075702;28;20040;-81
2022/01/30 03:16:03;;;;;;;48.25;29.25;;;;;;;;;;5075668;28;20025;-80
2022/01/30 03:18:33;;;;;;;39.70;23.85;;;;;;;;;;5075812;28;20021;-80
2022/01/30 03:20:59;;;;;;;35.92;21.23;;;;;;;;;;5075566;28;20076;-80
2022/01/30 03:23:26;;;;;;;37.92;23.48;;;;;;;;;;5075763;28;20031;-81
2022/01/30 03:25:57;;;;;;;40.40;25.00;;;;;;;;;;5075228;28;20031;-80
2022/01/30 03:28:23;;;;;;;41.35;25.15;;;;;;;;;;5057620;28;20024;-79
2022/01/30 03:30:54;;;;;;;60.47;35.17;;;;;;;;;;5075123;28;20043;-79
2022/01/30 03:33:21;;;;;;;54.13;34.45;;;;;;;;;;5075502;28;20033;-79
2022/01/30 03:35:47;;;;;;;44.42;29.30;;;;;;;;;;5075291;28;20058;-80
2022/01/30 03:38:14;;;;;;;48.83;27.92;;;;;;;;;;5075468;28;20038;-80
2022/01/30 03:40:43;;;;;;;42.65;24.25;;;;;;;;;;5075088;28;20124;-81
2022/01/30 03:43:09;;;;;;;44.78;24.50;;;;;;;;;;5075302;28;20035;-80
2022/01/30 03:45:36;;;;;;;42.75;23.20;;;;;;;;;;5075350;28;20029;-80
2022/01/30 03:48:02;;;;;;;38.20;22.67;;;;;;;;;;5075106;28;20024;-80
2022/01/30 03:50:28;;;;;;;38.05;23.08;;;;;;;;;;5075136;28;20415;-79
2022/01/30 03:52:55;;;;;;;36.40;21.08;;;;;;;;;;5074826;28;20487;-80
2022/01/30 03:55:21;;;;;;;42.92;25.48;;;;;;;;;;5075342;28;20028;-80
2022/01/30 03:57:47;;;;;;;27.40;17.75;;;;;;;;;;5074894;28;20382;-79
2022/01/30 04:00:14;;;;;;;27.42;16.50;;;;;;;;;;5057059;28;20040;-80
2022/01/30 04:02:40;;;;;;;28.85;17.60;;;;;;;;;;5074698;28;20043;-79
2022/01/30 04:05:06;;;;;;;28.13;17.35;;;;;;;;;;5078272;28;20020;-80
2022/01/30 04:07:35;;;;;;;28.80;18.00;;;;;;;;;;5084246;28;20027;-81
2022/01/30 04:10:05;;;;;;;29.13;18.88;;;;;;;;;;5084577;28;20106;-81
2022/01/30 04:12:31;;;;;;;31.35;18.17;;;;;;;;;;5084297;28;20034;-79
2022/01/30 04:14:57;;;;;;;26.73;16.25;;;;;;;;;;5080953;28;20028;-79
2022/01/30 04:17:24;;;;;;;25.63;15.88;;;;;;;;;;5074351;28;20222;-79
2022/01/30 04:19:50;;;;;;;22.40;14.35;;;;;;;;;;5074351;28;20025;-80
2022/01/30 04:22:16;;;;;;;22.52;14.95;;;;;;;;;;5074605;28;20429;-80
2022/01/30 04:24:42;;;;;;;24.85;15.65;;;;;;;;;;5056466;28;20485;-79
2022/01/30 04:27:08;;;;;;;24.05;14.55;;;;;;;;;;5074328;28;20057;-79
2022/01/30 04:29:35;;;;;;;33.63;21.38;;;;;;;;;;5074554;28;20073;-80
2022/01/30 04:32:02;;;;;;;33.45;20.75;;;;;;;;;;5074187;28;20027;-80
2022/01/30 04:34:29;;;;;;;32.53;19.30;;;;;;;;;;5074268;28;20036;-79
2022/01/30 04:52:08;;;;;;;;;;;;;;;;;;5074446;28;20040;-81
2022/01/30 05:01:19;;;;;;;26.80;14.10;;;;;;;;;;5042478;28;19999;-80
2022/01/30 05:06:51;;;;;;;24.80;13.45;;;;;;;;;;5073847;28;20031;-81
2022/01/30 05:09:17;;;;;;;30.25;19.70;;;;;;;;;;5073514;28;20438;-80
2022/01/30 05:11:43;;;;;;;41.63;24.38;;;;;;;;;;5073470;28;20020;-79
2022/01/30 05:14:09;;;;;;;54.45;34.83;;;;;;;;;;5073363;28;20037;-80
2022/01/30 05:16:38;;;;;;;45.13;29.02;;;;;;;;;;5073036;28;20028;-80
2022/01/30 05:19:04;;;;;;;39.53;26.27;;;;;;;;;;5073393;28;20035;-79
2022/01/30 05:21:30;;;;;;;35.15;23.58;;;;;;;;;;5073108;28;20033;-80
2022/01/30 05:23:56;;;;;;;38.58;27.17;;;;;;;;;;5073246;28;20021;-80
2022/01/30 05:26:24;;;;;;;65.55;39.08;;;;;;;;;;5073297;28;20078;-80
2022/01/30 05:28:51;;;;;;;45.25;26.38;;;;;;;;;;5072309;28;20024;-79
2022/01/30 05:31:17;;;;;;;48.08;32.58;;;;;;;;;;5073220;28;20024;-80
2022/01/30 05:33:43;;;;;;;47.78;31.83;;;;;;;;;;5054839;28;20047;-78
2022/01/30 05:36:09;;;;;;;40.53;28.13;;;;;;;;;;5073013;28;20601;-79
2022/01/30 05:38:36;;;;;;;38.65;20.95;;;;;;;;;;5072786;28;20054;-79
2022/01/30 05:41:02;;;;;;;39.42;24.20;;;;;;;;;;5072684;28;20032;-78
2022/01/30 05:43:31;;;;;;;38.67;23.20;;;;;;;;;;5072943;28;20020;-82
2022/01/30 05:46:10;;;;;;;42.63;24.58;;;;;;;;;;5072824;28;20034;-82
2022/01/30 05:48:37;;;;;;;50.10;31.10;;;;;;;;;;5072612;28;20024;-79
2022/01/30 05:51:03;;;;;;;52.75;29.33;;;;;;;;;;5072544;28;20135;-80
2022/01/30 05:53:30;;;;;;;104.47;50.97;;;;;;;;;;5072508;28;20025;-80
2022/01/30 05:55:56;;;;;;;60.67;32.67;;;;;;;;;;5072447;28;20067;-78
2022/01/30 05:58:22;;;;;;;47.55;27.90;;;;;;;;;;5072693;28;20028;-79
2022/01/30 06:00:48;;;;;;;42.30;23.95;;;;;;;;;;5072534;28;20025;-79
2022/01/30 06:03:14;;;;;;;43.60;25.27;;;;;;;;;;5072664;28;20028;-79
2022/01/30 06:05:41;;;;;;;29.98;18.00;;;;;;;;;;5072366;28;20532;-78
2022/01/30 06:08:14;;;;;;;28.48;17.58;;;;;;;;;;5072541;28;20024;-80
2022/01/30 06:10:40;;;;;;;27.80;19.10;;;;;;;;;;5072230;28;20116;-80
2022/01/30 06:13:06;;;;;;;30.85;19.45;;;;;;;;;;5072404;28;20071;-79
2022/01/30 06:15:32;;;;;;;29.95;17.92;;;;;;;;;;5072260;28;20112;-81
2022/01/30 06:17:58;;;;;;;29.77;18.65;;;;;;;;;;5072364;28;20024;-79
2022/01/30 06:20:24;;;;;;;31.85;20.00;;;;;;;;;;5072400;28;20119;-81
2022/01/30 06:22:51;;;;;;;31.60;19.10;;;;;;;;;;5072270;28;20095;-80
2022/01/30 06:25:17;;;;;;;47.25;27.92;;;;;;;;;;5072346;28;20119;-80
2022/01/30 06:27:43;;;;;;;98.35;57.15;;;;;;;;;;5071995;28;20376;-79
2022/01/30 06:30:09;;;;;;;72.32;40.72;;;;;;;;;;5072162;28;20028;-81
2022/01/30 06:32:36;;;;;;;67.07;40.35;;;;;;;;;;5072069;28;20471;-79
2022/01/30 06:35:02;;;;;;;50.53;29.38;;;;;;;;;;5072158;28;20823;-81
2022/01/30 06:37:28;;;;;;;48.33;28.48;;;;;;;;;;5071969;28;20459;-80
2022/01/30 06:39:54;;;;;;;44.05;27.50;;;;;;;;;;5071953;28;20028;-78
2022/01/30 06:42:21;;;;;;;33.53;22.42;;;;;;;;;;5072369;28;20032;-79
2022/01/30 06:44:47;;;;;;;35.70;23.30;;;;;;;;;;5071859;28;20434;-79
2022/01/30 06:47:14;;;;;;;45.15;26.55;;;;;;;;;;5054127;28;20037;-81
2022/01/30 06:49:40;;;;;;;51.55;31.35;;;;;;;;;;5071588;28;20384;-79
2022/01/30 06:52:09;;;;;;;59.13;35.80;;;;;;;;;;5072130;28;20032;-83
2022/01/30 06:54:35;;;;;;;60.28;34.83;;;;;;;;;;5072793;28;20032;-81
2022/01/30 06:57:01;;;;;;;51.72;32.45;;;;;;;;;;5072805;28;20028;-82
2022/01/30 06:59:27;;;;;;;53.00;30.92;;;;;;;;;;5072688;28;20025;-80
2022/01/30 07:01:54;;;;;;;62.28;39.10;;;;;;;;;;5071927;28;20123;-80
2022/01/30 07:04:20;;;;;;;71.82;45.88;;;;;;;;;;5053933;28;20129;-80
2022/01/30 07:06:46;;;;;;;86.38;57.75;;;;;;;;;;5071627;28;20095;-82
2022/01/30 07:09:12;;;;;;;78.40;52.75;;;;;;;;;;5071793;28;20040;-82
2022/01/30 07:11:38;;;;;;;85.63;55.55;;;;;;;;;;5053828;28;20153;-82
2022/01/30 07:14:04;;;;;;;108.05;65.22;;;;;;;;;;5071693;28;20051;-79
2022/01/30 07:16:31;;;;;;;102.78;62.67;;;;;;;;;;5071906;28;20029;-79
2022/01/30 07:18:58;;;;;;;77.10;47.65;;;;;;;;;;5071486;28;20025;-77
2022/01/30 07:21:24;;;;;;;101.13;57.67;;;;;;;;;;5071715;28;20364;-80
2022/01/30 07:23:50;;;;;;;74.85;44.58;;;;;;;;;;5071496;28;20107;-79
2022/01/30 07:26:16;;;;;;;64.88;39.58;;;;;;;;;;5071673;28;20033;-79
2022/01/30 07:28:42;;;;;;;65.35;40.42;;;;;;;;;;5053470;28;20036;-81
2022/01/30 07:31:08;;;;;;;64.65;35.72;;;;;;;;;;5071500;28;20024;-80
2022/01/30 07:33:35;;;;;;;69.03;40.75;;;;;;;;;;5071647;28;20032;-81
2022/01/30 07:36:02;;;;;;;78.85;46.42;;;;;;;;;;5071376;28;20373;-80
2022/01/30 07:38:29;;;;;;;81.75;49.45;;;;;;;;;;5071716;28;20104;-77
2022/01/30 07:40:55;;;;;;;82.40;50.13;;;;;;;;;;5071497;28;20021;-80
2022/01/30 07:43:21;;;;;;;95.05;56.90;;;;;;;;;;5071663;28;20390;-79
2022/01/30 07:45:47;;;;;;;71.85;45.28;;;;;;;;;;5053485;28;20031;-80
2022/01/30 07:48:15;;;;;;;65.75;41.08;;;;;;;;;;5071543;28;20098;-80
2022/01/30 07:50:41;;;;;;;52.42;34.13;;;;;;;;;;5071468;28;20121;-78
2022/01/30 07:53:07;;;;;;;45.20;30.08;;;;;;;;;;5074719;28;20036;-79
2022/01/30 07:55:33;;;;;;;44.28;28.60;;;;;;;;;;5075013;28;20107;-78
2022/01/30 07:58:00;;;;;;;45.10;29.60;;;;;;;;;;5074876;28;20074;-82
2022/01/30 08:00:26;;;;;;;48.78;31.23;;;;;;;;;;5075077;28;20037;-82
2022/01/30 08:02:52;;;;;;;45.10;28.13;;;;;;;;;;5074828;28;20021;-82
2022/01/30 08:05:18;;;;;;;31.92;20.88;;;;;;;;;;5074863;28;20020;-80
2022/01/30 08:07:44;;;;;;;30.63;19.85;;;;;;;;;;5074885;28;20033;-79
2022/01/30 08:10:10;;;;;;;32.35;19.88;;;;;;;;;;5074514;28;20027;-81
2022/01/30 08:12:38;;;;;;;31.42;21.38;;;;;;;;;;5074757;28;20403;-80
2022/01/30 08:15:04;;;;;;;49.95;33.22;;;;;;;;;;5056485;28;20033;-80
2022/01/30 08:17:32;;;;;;;46.60;29.33;;;;;;;;;;5074671;28;20059;-79
2022/01/30 08:19:59;;;;;;;48.05;29.65;;;;;;;;;;5074451;28;20504;-81
2022/01/30 08:22:28;;;;;;;43.63;28.08;;;;;;;;;;5074673;28;20027;-81
2022/01/30 08:24:55;;;;;;;31.95;22.48;;;;;;;;;;5074389;28;20020;-80
2022/01/30 08:27:21;;;;;;;33.38;20.88;;;;;;;;;;5074475;28;20024;-80
2022/01/30 08:29:47;;;;;;;31.48;19.20;;;;;;;;;;5074473;28;20414;-80
2022/01/30 08:32:13;;;;;;;30.40;20.70;;;;;;;;;;5074072;28;20360;-81
2022/01/30 08:34:40;;;;;;;27.75;17.05;;;;;;;;;;5074338;28;20036;-81
2022/01/30 08:37:06;;;;;;;31.83;19.33;;;;;;;;;;5074026;28;20386;-82
2022/01/30 08:39:33;;;;;;;33.90;21.15;;;;;;;;;;5074400;28;20024;-80
2022/01/30 08:41:59;;;;;;;28.23;18.58;;;;;;;;;;5074446;28;20024;-83
2022/01/30 08:44:25;;;;;;;32.03;18.42;;;;;;;;;;5074276;28;20044;-81
2022/01/30 08:46:51;;;;;;;32.17;18.02;;;;;;;;;;5056317;28;20024;-79
2022/01/30 08:49:17;;;;;;;27.10;16.33;;;;;;;;;;5073169;28;20083;-80
2022/01/30 08:51:43;;;;;;;25.85;15.73;;;;;;;;;;5073642;28;20391;-80
2022/01/30 08:54:09;;;;;;;23.60;15.25;;;;;;;;;;5073484;28;20044;-81
2022/01/30 08:56:35;;;;;;;26.42;16.33;;;;;;;;;;5080619;28;20037;-80
2022/01/30 08:59:01;;;;;;;22.35;15.27;;;;;;;;;;5074357;28;20360;-81
2022/01/30 09:01:32;;;;;;;23.92;15.95;;;;;;;;;;5073076;28;20054;-81
2022/01/30 09:03:59;;;;;;;19.45;13.45;;;;;;;;;;5072278;28;20131;-78
2022/01/30 09:06:26;;;;;;;22.13;15.02;;;;;;;;;;5073201;28;20036;-81
2022/01/30 09:08:52;;;;;;;23.38;15.27;;;;;;;;;;5074243;28;20048;-81
2022/01/30 09:11:18;;;;;;;24.00;14.55;;;;;;;;;;5084265;28;20047;-83
2022/01/30 09:13:44;;;;;;;25.00;16.75;;;;;;;;;;5073478;28;20039;-79
2022/01/30 09:16:10;;;;;;;26.20;16.13;;;;;;;;;;5089207;28;20054;-82
2022/01/30 09:18:38;;;;;;;28.73;18.23;;;;;;;;;;5090333;28;20024;-81
2022/01/30 09:21:04;;;;;;;28.75;18.33;;;;;;;;;;5072705;28;20028;-79
2022/01/30 09:23:30;;;;;;;24.65;16.33;;;;;;;;;;5072742;28;20044;-82
2022/01/30 09:25:56;;;;;;;24.85;16.40;;;;;;;;;;5055253;28;20368;-82
2022/01/30 09:28:22;;;;;;;25.80;16.60;;;;;;;;;;5072488;28;20024;-81
2022/01/30 09:30:49;;;;;;;23.45;15.38;;;;;;;;;;5072845;28;20488;-82
2022/01/30 09:33:15;;;;;;;22.80;16.58;;;;;;;;;;5072384;28;20475;-82
2022/01/30 09:35:41;;;;;;;22.85;15.25;;;;;;;;;;5072894;28;20036;-82
2022/01/30 09:38:07;;;;;;;63.83;35.20;;;;;;;;;;5078169;28;20040;-81
2022/01/30 09:40:33;;;;;;;34.88;21.20;;;;;;;;;;5072831;28;20021;-82
2022/01/30 09:42:59;;;;;;;24.10;15.68;;;;;;;;;;5054933;28;20498;-80
2022/01/30 09:45:27;;;;;;;22.30;13.80;;;;;;;;;;5072702;28;20028;-82
2022/01/30 09:47:53;;;;;;;20.63;13.80;;;;;;;;;;5072801;28;20437;-78
2022/01/30 09:50:21;;;;;;;18.83;12.00;;;;;;;;;;5096838;28;20055;-82
2022/01/30 09:52:47;;;;;;;19.20;12.07;;;;;;;;;;5113531;28;20111;-81
2022/01/30 09:55:15;;;;;;;23.55;15.98;;;;;;;;;;5112948;28;20501;-80
2022/01/30 09:57:41;;;;;;;20.80;14.27;;;;;;;;;;5113345;28;20040;-80
2022/01/30 10:00:08;;;;;;;17.73;11.80;;;;;;;;;;5113289;28;20152;-79
2022/01/30 10:02:35;;;;;;;14.88;9.77;;;;;;;;;;5113371;28;20027;-78
2022/01/30 10:05:01;;;;;;;13.93;9.75;;;;;;;;;;5113322;28;20024;-84
2022/01/30 10:07:49;;;;;;;15.55;10.32;;;;;;;;;;5113083;28;20034;-83
2022/01/30 10:10:17;;;;;;;14.15;10.77;;;;;;;;;;5113005;28;20088;-83
2022/01/30 10:13:03;;;;;;;15.55;10.98;;;;;;;;;;5113246;28;20024;-81
2022/01/30 10:15:29;;;;;;;16.08;10.70;;;;;;;;;;5112805;28;20103;-82
2022/01/30 10:17:55;;;;;;;16.27;10.20;;;;;;;;;;5112660;28;20505;-80
2022/01/30 10:20:24;;;;;;;15.65;10.95;;;;;;;;;;5113172;28;20466;-81
2022/01/30 10:22:50;;;;;;;15.10;10.00;;;;;;;;;;5112888;28;20088;-81
2022/01/30 10:25:19;;;;;;;15.43;9.85;;;;;;;;;;5113116;28;20031;-81
2022/01/30 10:27:45;;;;;;;14.35;9.90;;;;;;;;;;5112885;28;20026;-81
2022/01/30 10:30:12;;;;;;;20.35;10.57;;;;;;;;;;5113078;28;20028;-81
2022/01/30 10:32:38;;;;;;;15.43;11.27;;;;;;;;;;5112950;28;20023;-83
2022/01/30 10:35:08;;;;;;;16.58;10.68;;;;;;;;;;5112524;28;20058;-81
2022/01/30 10:37:36;;;;;;;16.15;10.15;;;;;;;;;;5112880;28;20088;-80
2022/01/30 10:40:11;;;;;;;16.15;10.02;;;;;;;;;;5112681;28;20470;-84
2022/01/30 10:42:39;;;;;;;13.32;10.30;;;;;;;;;;5094496;28;20028;-83
2022/01/30 10:45:06;;;;;;;13.57;10.27;;;;;;;;;;5094386;28;20088;-79
2022/01/30 10:47:32;;;;;;;16.73;10.23;;;;;;;;;;5112777;28;20424;-82
2022/01/30 10:50:00;;;;;;;14.00;10.48;;;;;;;;;;5112339;28;20047;-84
2022/01/30 10:52:26;;;;;;;18.40;11.65;;;;;;;;;;5113029;28;20098;-80
2022/01/30 10:55:03;;;;;;;16.52;12.70;;;;;;;;;;5094225;28;20493;-84
2022/01/30 10:57:29;;;;;;;19.30;13.25;;;;;;;;;;5094452;28;20038;-86
2022/01/30 10:59:56;;;;;;;20.67;13.43;;;;;;;;;;5112442;28;20026;-82
2022/01/30 11:02:23;;;;;;;18.85;12.80;;;;;;;;;;5112603;28;20477;-82
2022/01/30 11:04:50;;;;;;;16.00;12.43;;;;;;;;;;5112479;28;20099;-84
2022/01/30 11:07:21;;;;;;;24.23;16.42;;;;;;;;;;5112575;28;20039;-81
2022/01/30 11:10:23;;;;;;;23.10;15.80;;;;;;;;;;5112517;28;20068;-81
2022/01/30 11:12:56;;;;;;;17.35;13.05;;;;;;;;;;5111990;28;20386;-81
2022/01/30 11:15:35;;;;;;;21.70;14.13;;;;;;;;;;5112612;28;20062;-85
2022/01/30 11:18:04;;;;;;;16.88;12.45;;;;;;;;;;5112225;28;20031;-85
2022/01/30 11:20:32;;;;;;;22.40;15.20;;;;;;;;;;5112462;28;20080;-85
2022/01/30 11:23:03;;;;;;;21.65;16.25;;;;;;;;;;5112217;28;20351;-82
2022/01/30 11:25:38;;;;;;;27.98;17.77;;;;;;;;;;5112507;28;20149;-83
2022/01/30 11:28:06;;;;;;;23.73;18.10;;;;;;;;;;5116024;28;20035;-82
2022/01/30 11:30:32;;;;;;;27.05;18.35;;;;;;;;;;5116205;28;20032;-83
2022/01/30 11:32:59;;;;;;;26.35;17.40;;;;;;;;;;5116183;28;20031;-83
2022/01/30 11:35:26;;;;;;;23.30;15.65;;;;;;;;;;5115969;28;20035;-85
2022/01/30 11:37:52;;;;;;;24.95;16.65;;;;;;;;;;5115800;28;20020;-81
2022/01/30 11:40:19;;;;;;;18.67;13.23;;;;;;;;;;5116030;28;20070;-83
2022/01/30 11:42:48;;;;;;;14.15;9.98;;;;;;;;;;5115929;28;20073;-85
2022/01/30 11:45:32;;;;;;;11.55;7.93;;;;;;;;;;5115901;28;20080;-83
2022/01/30 11:48:00;;;;;;;12.93;8.98;;;;;;;;;;5115984;28;20024;-84
2022/01/30 11:50:30;;;;;;;12.32;9.20;;;;;;;;;;5115544;28;20132;-83
2022/01/30 11:52:59;;;;;;;16.13;11.82;;;;;;;;;;5115909;28;20028;-83
2022/01/30 11:55:37;;;;;;;25.15;17.85;;;;;;;;;;5097192;28;20040;-83
2022/01/30 11:58:04;;;;;;;20.70;13.40;;;;;;;;;;5115492;28;20097;-85
2022/01/30 12:00:37;;;;;;;25.25;17.42;;;;;;;;;;5115410;28;20424;-81
2022/01/30 12:03:23;;;;;;;13.23;10.68;;;;;;;;;;5115481;28;20027;-81
2022/01/30 12:05:49;;;;;;;11.48;8.93;;;;;;;;;;5115499;28;20024;-83
2022/01/30 12:08:34;;;;;;;11.98;9.15;;;;;;;;;;5115668;28;20035;-83
2022/01/30 12:11:00;;;;;;;;;;;;;;;;;;5116021;28;20053;-84
2022/01/30 12:13:45;;;;;;;13.77;9.40;;;;;;;;;;5115338;28;20429;-79
2022/01/30 12:16:29;;;;;;;17.10;11.65;;;;;;;;;;5115532;28;20023;-80
2022/01/30 12:18:55;;;;;;;15.20;10.40;;;;;;;;;;5115406;28;20023;-81
2022/01/30 12:21:27;;;;;;;17.38;11.60;;;;;;;;;;5115004;28;20102;-83
2022/01/30 12:23:53;;;;;;;15.43;10.77;;;;;;;;;;5115280;28;20026;-79
2022/01/30 12:26:20;;;;;;;18.88;13.52;;;;;;;;;;5114990;28;20028;-82
2022/01/30 12:28:51;;;;;;;28.20;19.67;;;;;;;;;;5096757;28;20116;-80
2022/01/30 12:31:31;;;;;;;23.23;16.48;;;;;;;;;;5114991;28;20500;-79
2022/01/30 12:34:16;;;;;;;13.18;9.50;;;;;;;;;;5114855;28;20101;-85
2022/01/30 12:37:01;;;;;;;9.85;6.93;;;;;;;;;;5114877;28;20371;-83
2022/01/30 12:39:27;;;;;;;8.85;6.15;;;;;;;;;;5114600;28;20095;-81
2022/01/30 12:41:54;;;;;;;8.43;6.28;;;;;;;;;;5096751;28;20042;-81
2022/01/30 12:44:21;;;;;;;13.90;8.63;;;;;;;;;;5114747;28;20544;-83
2022/01/30 12:46:53;;;;;;;16.98;12.25;;;;;;;;;;5096321;28;20023;-79
2022/01/30 12:49:21;;;;;;;13.32;9.25;;;;;;;;;;5114039;28;20075;-78
2022/01/30 12:51:50;;;;;;;17.23;11.52;;;;;;;;;;5115349;28;20084;-83
2022/01/30 12:54:18;;;;;;;11.02;7.10;;;;;;;;;;5114358;28;20047;-79
2022/01/30 12:56:45;;;;;;;9.23;6.63;;;;;;;;;;5114838;28;20059;-82
2022/01/30 12:59:13;;;;;;;9.82;6.88;;;;;;;;;;5114443;28;20489;-80
2022/01/30 13:01:43;;;;;;;9.57;6.57;;;;;;;;;;5114570;28;20108;-84
2022/01/30 13:04:11;;;;;;;8.55;6.50;;;;;;;;;;5114240;28;20024;-81
2022/01/30 13:06:41;;;;;;;13.07;7.80;;;;;;;;;;5114546;28;20092;-80
2022/01/30 13:09:08;;;;;;;15.52;11.15;;;;;;;;;;5114310;28;20028;-82
2022/01/30 13:11:34;;;;;;;16.38;11.27;;;;;;;;;;5096062;28;20110;-83
2022/01/30 13:14:05;;;;;;;9.95;7.28;;;;;;;;;;5096063;28;20039;-83
2022/01/30 13:16:33;;;;;;;7.95;5.88;;;;;;;;;;5114328;28;20027;-83
2022/01/30 13:18:59;;;;;;;9.52;6.25;;;;;;;;;;5114269;28;20031;-79
2022/01/30 13:21:27;;;;;;;6.32;5.25;;;;;;;;;;5114126;28;20048;-79
2022/01/30 13:23:54;;;;;;;7.45;5.53;;;;;;;;;;5114156;28;20526;-84
2022/01/30 13:26:29;;;;;;;6.57;4.18;;;;;;;;;;5095669;28;20023;-82
2022/01/30 13:28:55;;;;;;;8.02;5.00;;;;;;;;;;5095769;28;20134;-80
2022/01/30 13:31:22;;;;;;;7.05;4.68;;;;;;;;;;5095541;28;20525;-82
2022/01/30 13:34:06;;;;;;;5.88;4.03;;;;;;;;;;5113871;28;20067;-81
2022/01/30 13:36:34;;;;;;;6.28;4.40;;;;;;;;;;5113776;28;20055;-81
2022/01/30 13:39:05;;;;;;;6.85;5.30;;;;;;;;;;5113607;28;20016;-79
2022/01/30 13:41:34;;;;;;;7.40;4.47;;;;;;;;;;5113765;28;20030;-82
2022/01/30 13:44:01;;;;;;;8.35;5.05;;;;;;;;;;5113518;28;20024;-80
2022/01/30 13:49:12;;;;;;;8.10;5.40;;;;;;;;;;5112969;28;20134;-81
2022/01/30 13:51:38;;;;;;;8.52;6.10;;;;;;;;;;5113254;28;20102;-82
2022/01/30 13:54:05;;;;;;;8.95;6.13;;;;;;;;;;5095351;28;20130;-84
2022/01/30 13:56:32;;;;;;;8.10;6.10;;;;;;;;;;5113307;28;20028;-80
2022/01/30 13:58:58;;;;;;;9.23;6.93;;;;;;;;;;5113431;28;20055;-79
2022/01/30 14:01:30;;;;;;;6.85;4.85;;;;;;;;;;5113254;27;20059;-82
2022/01/30 14:04:15;;;;;;;9.45;5.90;;;;;;;;;;5095239;28;20038;-80
2022/01/30 14:06:49;;;;;;;8.23;5.93;;;;;;;;;;5113446;28;20035;-80
2022/01/30 14:09:19;;;;;;;10.50;6.55;;;;;;;;;;5113083;28;20462;-83
2022/01/30 14:11:52;;;;;;;9.93;7.07;;;;;;;;;;5113206;28;20096;-83
2022/01/30 14:14:23;;;;;;;9.35;5.70;;;;;;;;;;5094606;28;20035;-84
2022/01/30 14:16:51;;;;;;;7.13;5.60;;;;;;;;;;5095110;28;20038;-84
2022/01/30 14:19:19;;;;;;;8.70;6.75;;;;;;;;;;5112891;28;20110;-79
2022/01/30 14:21:48;;;;;;;7.57;5.22;;;;;;;;;;5113065;28;20028;-78
2022/01/30 14:24:18;;;;;;;7.60;6.50;;;;;;;;;;5112797;28;20494;-81
2022/01/30 14:26:45;;;;;;;9.45;7.70;;;;;;;;;;5113183;28;20046;-81
2022/01/30 14:29:12;;;;;;;10.07;6.40;;;;;;;;;;5113070;28;20027;-83
2022/01/30 14:31:57;;;;;;;8.48;6.32;;;;;;;;;;5113054;28;20500;-80
2022/01/30 14:34:25;;;;;;;7.45;6.10;;;;;;;;;;5094800;28;20046;-81
2022/01/30 14:36:53;;;;;;;8.45;7.00;;;;;;;;;;5112621;28;20458;-81
2022/01/30 14:39:19;;;;;;;5.20;4.70;;;;;;;;;;5112839;28;20441;-80
2022/01/30 14:41:45;;;;;;;8.52;5.53;;;;;;;;;;5112573;28;20028;-80
2022/01/30 14:44:11;;;;;;;7.05;4.90;;;;;;;;;;5112889;28;20089;-80
2022/01/30 14:46:38;;;;;;;8.00;6.53;;;;;;;;;;5094438;28;20596;-82
2022/01/30 14:49:04;;;;;;;7.35;5.75;;;;;;;;;;5112232;28;20141;-79
2022/01/30 14:51:30;;;;;;;6.28;5.03;;;;;;;;;;5112738;28;20057;-84
2022/01/30 14:53:56;;;;;;;7.60;5.32;;;;;;;;;;5112419;28;20036;-83
2022/01/30 14:56:22;;;;;;;8.90;6.72;;;;;;;;;;5112666;28;20028;-78
2022/01/30 14:58:48;;;;;;;11.15;7.45;;;;;;;;;;5094053;28;20028;-83
2022/01/30 15:01:14;;;;;;;7.18;5.40;;;;;;;;;;5095333;28;20946;-81
2022/01/30 15:03:40;;;;;;;7.65;5.60;;;;;;;;;;5116594;28;20023;-81
2022/01/30 15:06:07;;;;;;;11.90;5.63;;;;;;;;;;5116681;28;20031;-81
2022/01/30 15:08:33;;;;;;;12.00;7.15;;;;;;;;;;5097974;28;20027;-81
2022/01/30 15:10:59;;;;;;;12.25;6.75;;;;;;;;;;5097569;28;20028;-81
2022/01/30 15:13:25;;;;;;;14.85;7.25;;;;;;;;;;5116342;28;20031;-80
2022/01/30 15:15:52;;;;;;;10.80;5.70;;;;;;;;;;5116209;28;20023;-81
2022/01/30 15:18:29;;;;;;;10.75;6.43;;;;;;;;;;5115773;28;20024;-80
2022/01/30 15:20:55;;;;;;;11.48;6.95;;;;;;;;;;5116244;28;20076;-84